createdAt,value
2023-05-14T00:01:28.410Z,101554.19
2023-05-14T00:03:56.422Z,101553.81
2023-05-14T00:06:24.306Z,101546.78
2023-05-14T00:08:53.505Z,101551.28
2023-05-14T00:11:22.136Z,101549.78
2023-05-14T00:13:50.404Z,101546.78
2023-05-14T00:16:18.352Z,101546.41
2023-05-14T00:18:46.381Z,101542.22
2023-05-14T00:21:14.294Z,101540.75
2023-05-14T00:23:42.184Z,101534.88
2023-05-14T00:26:11.372Z,101537.38
2023-05-14T00:28:39.977Z,101539.06
2023-05-14T00:31:07.814Z,101542.91
2023-05-14T00:33:36.216Z,101537.72
2023-05-14T00:36:04.341Z,101536.03
2023-05-14T00:38:32.226Z,101533.34
2023-05-14T00:41:00.091Z,101530.50
2023-05-14T00:43:29.336Z,101533.69
2023-05-14T00:45:57.312Z,101526.69
2023-05-14T00:48:25.896Z,101526.19
2023-05-14T00:50:53.826Z,101524.75
2023-05-14T00:53:21.883Z,101522.72
2023-05-14T00:55:50.783Z,101519.91
2023-05-14T00:58:19.073Z,101523.25
2023-05-14T01:00:48.560Z,101527.03
2023-05-14T01:03:16.709Z,101516.66
2023-05-14T01:05:52.565Z,101521.81
2023-05-14T01:08:28.869Z,101520.28
2023-05-14T01:11:02.016Z,101515.56
2023-05-14T01:13:34.990Z,101515.19
2023-05-14T01:16:05.650Z,101510.53
2023-05-14T01:18:34.420Z,101523.06
2023-05-14T01:21:02.934Z,101518.19
2023-05-14T01:23:32.254Z,101516.53
2023-05-14T01:26:00.092Z,101518.69
2023-05-14T01:28:30.575Z,101526.13
2023-05-14T01:31:01.813Z,101513.91
2023-05-14T01:33:30.518Z,101521.41
2023-05-14T01:35:58.811Z,101515.75
2023-05-14T01:38:27.517Z,101512.22
2023-05-14T01:40:57.945Z,101510.72
2023-05-14T01:43:25.932Z,101504.84
2023-05-14T01:45:55.264Z,101507.53
2023-05-14T01:48:23.573Z,101508.72
2023-05-14T01:50:52.387Z,101502.38
2023-05-14T01:53:20.599Z,101511.06
2023-05-14T01:55:48.469Z,101495.50
2023-05-14T01:58:17.734Z,101497.84
2023-05-14T02:00:45.595Z,101502.03
2023-05-14T02:03:13.529Z,101499.00
2023-05-14T02:05:41.647Z,101491.66
2023-05-14T02:08:09.482Z,101501.91
2023-05-14T02:10:37.451Z,101496.13
2023-05-14T02:13:05.386Z,101497.47
2023-05-14T02:15:34.634Z,101493.59
2023-05-14T02:18:02.602Z,101488.75
2023-05-14T02:20:30.657Z,101495.78
2023-05-14T02:22:58.609Z,101494.78
2023-05-14T02:25:26.410Z,101491.78
2023-05-14T02:27:54.378Z,101490.63
2023-05-14T02:30:25.214Z,101490.13
2023-05-14T02:32:54.996Z,101487.09
2023-05-14T02:35:22.931Z,101486.09
2023-05-14T02:37:50.800Z,101489.38
2023-05-14T02:40:18.879Z,101496.34
2023-05-14T02:42:46.713Z,101490.38
2023-05-14T02:45:14.589Z,101489.66
2023-05-14T02:47:43.521Z,101482.97
2023-05-14T02:50:12.897Z,101489.16
2023-05-14T02:52:40.786Z,101486.41
2023-05-14T02:55:09.418Z,101483.03
2023-05-14T02:57:37.470Z,101483.19
2023-05-14T03:00:06.588Z,101485.16
2023-05-14T03:02:35.726Z,101485.09
2023-05-14T03:05:04.310Z,101487.75
2023-05-14T03:07:33.587Z,101484.41
2023-05-14T03:10:01.582Z,101497.47
2023-05-14T03:12:29.664Z,101495.47
2023-05-14T03:14:57.541Z,101496.16
2023-05-14T03:17:25.466Z,101502.19
2023-05-14T03:19:53.357Z,101495.03
2023-05-14T03:22:21.316Z,101495.53
2023-05-14T03:24:50.794Z,101497.66
2023-05-14T03:27:18.746Z,101487.34
2023-05-14T03:29:46.604Z,101491.19
2023-05-14T03:32:14.494Z,101486.34
2023-05-14T03:34:42.703Z,101489.03
2023-05-14T03:37:10.934Z,101491.84
2023-05-14T03:39:38.819Z,101485.00
2023-05-14T03:42:08.290Z,101483.03
2023-05-14T03:44:36.274Z,101479.50
2023-05-14T03:47:05.161Z,101483.50
2023-05-14T03:49:33.171Z,101487.19
2023-05-14T03:52:01.257Z,101482.00
2023-05-14T03:54:29.118Z,101480.81
2023-05-14T03:56:56.930Z,101484.16
2023-05-14T03:59:26.151Z,101478.81
2023-05-14T04:01:54.991Z,101482.66
2023-05-14T04:04:22.981Z,101478.81
2023-05-14T04:06:50.820Z,101483.03
2023-05-14T04:09:18.665Z,101479.81
2023-05-14T04:11:46.596Z,101473.97
2023-05-14T04:14:14.497Z,101480.50
2023-05-14T04:16:45.133Z,101474.50
2023-05-14T04:19:13.183Z,101469.97
2023-05-14T04:21:41.186Z,101472.97
2023-05-14T04:24:09.307Z,101468.78
2023-05-14T04:26:37.268Z,101466.78
2023-05-14T04:29:05.106Z,101470.13
2023-05-14T04:31:33.036Z,101470.28
2023-05-14T04:34:02.296Z,101470.78
2023-05-14T04:36:30.133Z,101467.44
2023-05-14T04:38:57.963Z,101460.75
2023-05-14T04:41:26.163Z,101464.94
2023-05-14T04:43:57.107Z,101459.97
2023-05-14T04:46:24.963Z,101462.94
2023-05-14T04:48:52.912Z,101459.31
2023-05-14T04:51:22.206Z,101460.34
2023-05-14T04:53:50.145Z,101464.91
2023-05-14T04:56:18.044Z,101461.56
2023-05-14T04:58:45.915Z,101460.28
2023-05-14T05:01:13.857Z,101462.28
2023-05-14T05:03:41.896Z,101452.91
2023-05-14T05:06:09.781Z,101462.13
2023-05-14T05:08:38.984Z,101456.25
2023-05-14T05:11:06.905Z,101455.25
2023-05-14T05:13:34.738Z,101463.63
2023-05-14T05:16:03.629Z,101454.41
2023-05-14T05:18:31.520Z,101450.69
2023-05-14T05:20:59.348Z,101458.25
2023-05-14T05:23:27.234Z,101458.28
2023-05-14T05:25:56.428Z,101451.75
2023-05-14T05:28:24.307Z,101454.75
2023-05-14T05:30:52.162Z,101456.28
2023-05-14T05:33:20.060Z,101446.06
2023-05-14T05:35:48.310Z,101452.63
2023-05-14T05:38:18.138Z,101442.56
2023-05-14T05:40:46.016Z,101443.91
2023-05-14T05:43:16.073Z,101452.47
2023-05-14T05:45:43.986Z,101444.41
2023-05-14T05:48:12.018Z,101446.25
2023-05-14T05:50:42.141Z,101450.09
2023-05-14T05:53:10.125Z,101447.59
2023-05-14T05:55:38.029Z,101445.06
2023-05-14T05:58:05.886Z,101439.94
2023-05-14T06:00:35.202Z,101442.94
2023-05-14T06:03:03.062Z,101444.59
2023-05-14T06:05:31.082Z,101446.25
2023-05-14T06:07:58.994Z,101444.25
2023-05-14T06:10:26.804Z,101452.97
2023-05-14T06:12:54.613Z,101446.94
2023-05-14T06:15:22.429Z,101442.41
2023-05-14T06:17:51.656Z,101438.22
2023-05-14T06:20:20.057Z,101447.28
2023-05-14T06:22:47.949Z,101441.75
2023-05-14T06:25:16.017Z,101442.91
2023-05-14T06:27:44.045Z,101447.91
2023-05-14T06:30:13.126Z,101444.75
2023-05-14T06:32:41.058Z,101448.91
2023-05-14T06:35:12.777Z,101446.16
2023-05-14T06:37:40.624Z,101444.16
2023-05-14T06:40:09.484Z,101443.81
2023-05-14T06:42:37.326Z,101446.03
2023-05-14T06:45:06.981Z,101445.69
2023-05-14T06:47:34.985Z,101444.13
2023-05-14T06:50:03.122Z,101446.47
2023-05-14T06:52:32.778Z,101445.59
2023-05-14T06:55:01.063Z,101447.41
2023-05-14T06:57:28.980Z,101443.72
2023-05-14T06:59:57.465Z,101448.47
2023-05-14T07:02:25.300Z,101455.09
2023-05-14T07:04:53.431Z,101450.72
2023-05-14T07:07:21.437Z,101446.56
2023-05-14T07:09:50.991Z,101448.88
2023-05-14T07:12:18.864Z,101440.09
2023-05-14T07:14:46.714Z,101434.13
2023-05-14T07:17:14.695Z,101432.03
2023-05-14T07:19:42.783Z,101435.41
2023-05-14T07:22:10.602Z,101432.88
2023-05-14T07:24:38.433Z,101426.34
2023-05-14T07:27:08.471Z,101434.94
2023-05-14T07:29:36.460Z,101427.47
2023-05-14T07:32:04.620Z,101425.16
2023-05-14T07:34:32.548Z,101422.41
2023-05-14T07:37:01.176Z,101423.81
2023-05-14T07:39:29.075Z,101423.59
2023-05-14T07:41:56.918Z,101418.09
2023-05-14T07:44:26.202Z,101415.97
2023-05-14T07:46:54.182Z,101407.59
2023-05-14T07:49:22.027Z,101408.47
2023-05-14T07:51:49.892Z,101407.91
2023-05-14T07:54:17.853Z,101407.47
2023-05-14T07:56:45.848Z,101395.47
2023-05-14T07:59:13.720Z,101395.72
2023-05-14T08:01:43.074Z,101404.25
2023-05-14T08:04:11.814Z,101402.81
2023-05-14T08:06:39.722Z,101395.81
2023-05-14T08:09:08.651Z,101393.31
2023-05-14T08:11:36.486Z,101401.00
2023-05-14T08:14:04.316Z,101391.72
2023-05-14T08:16:32.241Z,101386.56
2023-05-14T08:19:01.518Z,101386.22
2023-05-14T08:21:29.369Z,101383.28
2023-05-14T08:23:57.203Z,101374.13
2023-05-14T08:26:25.836Z,101377.88
2023-05-14T08:28:54.220Z,101379.50
2023-05-14T08:31:22.225Z,101378.31
2023-05-14T08:33:50.601Z,101366.88
2023-05-14T08:36:19.803Z,101370.81
2023-05-14T08:38:48.464Z,101374.34
2023-05-14T08:41:16.736Z,101369.91
2023-05-14T08:43:46.764Z,101365.16
2023-05-14T08:46:15.853Z,101365.34
2023-05-14T08:48:44.360Z,101361.59
2023-05-14T08:51:12.225Z,101358.00
2023-05-14T08:53:41.569Z,101354.34
2023-05-14T08:56:09.744Z,101357.28
2023-05-14T08:58:37.558Z,101355.81
2023-05-14T09:01:05.697Z,101359.44
2023-05-14T09:03:33.941Z,101344.28
2023-05-14T09:06:02.103Z,101348.78
2023-05-14T09:08:30.531Z,101333.63
2023-05-14T09:10:59.738Z,101326.31
2023-05-14T09:13:28.418Z,101332.78
2023-05-14T09:15:56.728Z,101323.66
2023-05-14T09:18:24.654Z,101328.81
2023-05-14T09:20:53.064Z,101325.53
2023-05-14T09:23:21.048Z,101320.84
2023-05-14T09:25:49.757Z,101309.88
2023-05-14T09:28:21.187Z,101315.00
2023-05-14T09:30:52.088Z,101298.97
2023-05-14T09:33:27.746Z,101298.91
2023-05-14T09:35:59.073Z,101294.94
2023-05-14T09:38:29.971Z,101296.13
2023-05-14T09:40:58.034Z,101287.47
2023-05-14T09:43:27.340Z,101290.78
2023-05-14T09:45:55.225Z,101282.75
2023-05-14T09:48:23.184Z,101271.34
2023-05-14T09:50:52.090Z,101279.47
2023-05-14T09:53:20.036Z,101272.19
2023-05-14T09:55:49.232Z,101262.38
2023-05-14T09:58:17.218Z,101252.16
2023-05-14T10:00:47.699Z,101267.25
2023-05-14T10:03:18.784Z,101261.03
2023-05-14T10:05:50.060Z,101259.91
2023-05-14T10:08:22.728Z,101251.75
2023-05-14T10:10:51.848Z,101250.75
2023-05-14T10:13:21.944Z,101253.63
2023-05-14T10:15:58.116Z,101247.91
2023-05-14T10:18:26.394Z,101248.22
2023-05-14T10:20:58.697Z,101256.84
2023-05-14T10:23:26.667Z,101237.03
2023-05-14T10:25:54.658Z,101234.28
2023-05-14T10:28:22.597Z,101240.63
2023-05-14T10:30:51.942Z,101228.66
2023-05-14T10:33:20.291Z,101221.41
2023-05-14T10:35:59.408Z,101222.72
2023-05-14T10:38:28.407Z,101227.25
2023-05-14T10:40:58.835Z,101219.47
2023-05-14T10:43:28.963Z,101226.22
2023-05-14T10:45:59.302Z,101223.34
2023-05-14T10:48:27.302Z,101228.19
2023-05-14T10:50:55.561Z,101227.25
2023-05-14T10:53:32.918Z,101219.75
2023-05-14T10:56:05.806Z,101212.69
2023-05-14T10:58:36.916Z,101212.28
2023-05-14T11:01:07.272Z,101219.50
2023-05-14T11:03:41.163Z,101224.31
2023-05-14T11:06:09.926Z,101224.72
2023-05-14T11:08:38.449Z,101220.78
2023-05-14T11:11:07.237Z,101216.00
2023-05-14T11:13:35.109Z,101211.84
2023-05-14T11:16:12.016Z,101204.97
2023-05-14T11:18:54.419Z,101205.59
2023-05-14T11:21:22.302Z,101202.50
2023-05-14T11:23:50.145Z,101199.34
2023-05-14T11:26:20.105Z,101200.00
2023-05-14T11:28:49.523Z,101193.53
2023-05-14T11:31:17.443Z,101196.47
2023-05-14T11:33:45.484Z,101193.09
2023-05-14T11:36:14.756Z,101187.72
2023-05-14T11:38:48.665Z,101194.56
2023-05-14T11:41:16.547Z,101191.06
2023-05-14T11:43:45.593Z,101182.13
2023-05-14T11:46:17.905Z,101176.91
2023-05-14T11:48:46.054Z,101186.06
2023-05-14T11:51:15.332Z,101174.81
2023-05-14T11:53:43.195Z,101171.28
2023-05-14T11:56:11.341Z,101165.25
2023-05-14T11:58:39.303Z,101164.88
2023-05-14T12:01:07.254Z,101160.06
2023-05-14T12:03:36.096Z,101157.78
2023-05-14T12:06:07.867Z,101148.38
2023-05-14T12:08:38.288Z,101150.94
2023-05-14T12:11:06.845Z,101140.19
2023-05-14T12:13:34.692Z,101142.75
2023-05-14T12:16:03.654Z,101139.41
2023-05-14T12:18:32.966Z,101134.47
2023-05-14T12:21:03.660Z,101137.06
2023-05-14T12:23:32.252Z,101123.88
2023-05-14T12:26:05.944Z,101131.09
2023-05-14T12:28:36.044Z,101135.97
2023-05-14T12:31:05.907Z,101124.13
2023-05-14T12:33:33.741Z,101130.81
2023-05-14T12:36:14.000Z,101124.81
2023-05-14T12:38:49.094Z,101123.94
2023-05-14T12:41:18.831Z,101131.63
2023-05-14T12:43:48.704Z,101114.44
2023-05-14T12:46:16.617Z,101112.34
2023-05-14T12:48:44.533Z,101116.59
2023-05-14T12:51:12.393Z,101101.25
2023-05-14T12:53:40.188Z,101099.25
2023-05-14T12:56:08.448Z,101106.75
2023-05-14T12:58:37.710Z,101106.84
2023-05-14T13:01:05.942Z,101099.97
2023-05-14T13:03:34.015Z,101098.22
2023-05-14T13:06:02.173Z,101100.72
2023-05-14T13:08:30.092Z,101096.19
2023-05-14T13:10:57.988Z,101097.06
2023-05-14T13:13:26.196Z,101101.22
2023-05-14T13:15:55.516Z,101095.22
2023-05-14T13:18:23.382Z,101085.19
2023-05-14T13:20:51.767Z,101077.72
2023-05-14T13:23:19.669Z,101085.63
2023-05-14T13:25:49.169Z,101079.59
2023-05-14T13:28:17.798Z,101082.94
2023-05-14T13:31:07.018Z,101071.50
2023-05-14T13:33:36.949Z,101074.41
2023-05-14T13:36:05.704Z,101072.72
2023-05-14T13:38:33.717Z,101066.25
2023-05-14T13:41:02.974Z,101069.75
2023-05-14T13:43:31.315Z,101070.19
2023-05-14T13:45:59.256Z,101062.69
2023-05-14T13:48:28.867Z,101054.19
2023-05-14T13:50:56.899Z,101059.16
2023-05-14T13:53:25.636Z,101061.84
2023-05-14T13:55:56.353Z,101053.31
2023-05-14T13:58:24.928Z,101049.97
2023-05-14T14:00:53.430Z,101053.69
2023-05-14T14:03:21.431Z,101041.66
2023-05-14T14:05:52.124Z,101038.56
2023-05-14T14:08:23.768Z,101039.50
2023-05-14T14:10:54.540Z,101039.06
2023-05-14T14:13:23.239Z,101037.72
2023-05-14T14:15:51.428Z,101025.53
2023-05-14T14:18:19.308Z,101020.66
2023-05-14T14:20:48.206Z,101027.91
2023-05-14T14:23:17.403Z,101029.38
2023-05-14T14:25:45.204Z,101026.69
2023-05-14T14:28:13.560Z,101025.84
2023-05-14T14:30:41.371Z,101021.56
2023-05-14T14:33:09.371Z,101027.50
2023-05-14T14:35:37.451Z,101022.50
2023-05-14T14:38:05.413Z,101016.38
2023-05-14T14:40:35.387Z,101017.00
2023-05-14T14:43:03.252Z,101013.50
2023-05-14T14:45:31.156Z,101010.97
2023-05-14T14:48:23.957Z,101025.47
2023-05-14T14:50:52.677Z,101004.81
2023-05-14T14:53:20.771Z,101005.56
2023-05-14T14:55:50.039Z,101003.88
2023-05-14T14:58:19.750Z,101004.13
2023-05-14T15:00:47.711Z,101001.59
2023-05-14T15:03:16.125Z,100990.13
2023-05-14T15:05:44.022Z,100993.16
2023-05-14T15:08:11.990Z,100990.97
2023-05-14T15:10:41.162Z,100988.25
2023-05-14T15:13:11.235Z,100991.28
2023-05-14T15:15:39.152Z,100994.94
2023-05-14T15:18:07.262Z,100991.31
2023-05-14T15:20:35.216Z,100985.13
2023-05-14T15:23:03.170Z,100992.59
2023-05-14T15:25:31.022Z,100982.09
2023-05-14T15:27:58.909Z,100972.28
2023-05-14T15:30:28.182Z,100972.75
2023-05-14T15:32:56.575Z,100978.97
2023-05-14T15:35:24.954Z,100968.19
2023-05-14T15:37:57.601Z,100972.28
2023-05-14T15:40:25.599Z,100968.53
2023-05-14T15:42:53.601Z,100964.84
2023-05-14T15:45:21.693Z,100967.31
2023-05-14T15:47:50.933Z,100965.06
2023-05-14T15:50:18.892Z,100954.88
2023-05-14T15:52:46.771Z,100956.94
2023-05-14T15:55:14.668Z,100958.75
2023-05-14T15:57:42.479Z,100955.22
2023-05-14T16:00:11.578Z,100950.09
2023-05-14T16:02:40.372Z,100949.06
2023-05-14T16:05:10.318Z,100955.28
2023-05-14T16:07:38.200Z,100946.63
2023-05-14T16:10:07.161Z,100943.66
2023-05-14T16:12:35.081Z,100941.81
2023-05-14T16:15:03.170Z,100947.88
2023-05-14T16:17:33.601Z,100944.78
2023-05-14T16:20:01.718Z,100934.38
2023-05-14T16:22:32.582Z,100942.94
2023-05-14T16:25:03.135Z,100935.06
2023-05-14T16:27:31.405Z,100940.44
2023-05-14T16:29:59.309Z,100932.50
2023-05-14T16:32:27.612Z,100931.72
2023-05-14T16:34:56.401Z,100927.34
2023-05-14T16:37:24.270Z,100926.72
2023-05-14T16:39:53.560Z,100920.28
2023-05-14T16:42:21.520Z,100918.63
2023-05-14T16:44:49.430Z,100921.34
2023-05-14T16:47:17.267Z,100917.41
2023-05-14T16:49:45.126Z,100918.84
2023-05-14T16:52:12.977Z,100919.69
2023-05-14T16:54:40.820Z,100923.19
2023-05-14T16:57:10.239Z,100920.53
2023-05-14T16:59:38.147Z,100920.09
2023-05-14T17:02:06.055Z,100927.59
2023-05-14T17:04:38.675Z,100919.72
2023-05-14T17:07:06.937Z,100921.59
2023-05-14T17:09:34.908Z,100923.88
2023-05-14T17:12:02.861Z,100918.47
2023-05-14T17:14:32.072Z,100923.47
2023-05-14T17:16:59.895Z,100920.75
2023-05-14T17:19:27.712Z,100923.25
2023-05-14T17:21:55.645Z,100910.16
2023-05-14T17:24:23.567Z,100921.13
2023-05-14T17:26:51.394Z,100917.19
2023-05-14T17:29:19.301Z,100914.06
2023-05-14T17:31:50.815Z,100912.63
2023-05-14T17:34:18.780Z,100918.41
2023-05-14T17:36:46.654Z,100913.00
2023-05-14T17:39:14.493Z,100919.84
2023-05-14T17:41:42.697Z,100914.06
2023-05-14T17:44:12.720Z,100913.03
2023-05-14T17:46:41.559Z,100909.91
2023-05-14T17:49:11.762Z,100910.72
2023-05-14T17:51:39.575Z,100915.09
2023-05-14T17:54:07.577Z,100915.88
2023-05-14T17:56:35.586Z,100915.88
2023-05-14T17:59:03.705Z,100920.66
2023-05-14T18:01:32.052Z,100916.06
2023-05-14T18:04:00.013Z,100916.72
2023-05-14T18:06:29.262Z,100917.78
2023-05-14T18:08:58.225Z,100925.81
2023-05-14T18:11:26.263Z,100922.03
2023-05-14T18:13:54.093Z,100914.59
2023-05-14T18:16:21.970Z,100924.75
2023-05-14T18:18:49.907Z,100918.94
2023-05-14T18:21:17.927Z,100921.16
2023-05-14T18:23:47.093Z,100922.00
2023-05-14T18:26:15.148Z,100928.41
2023-05-14T18:28:43.017Z,100934.00
2023-05-14T18:31:10.850Z,100923.63
2023-05-14T18:33:38.745Z,100924.41
2023-05-14T18:36:07.030Z,100924.13
2023-05-14T18:38:35.096Z,100928.91
2023-05-14T18:41:04.398Z,100925.53
2023-05-14T18:43:32.278Z,100925.50
2023-05-14T18:46:00.302Z,100935.19
2023-05-14T18:48:28.145Z,100928.53
2023-05-14T18:50:55.999Z,100939.66
2023-05-14T18:53:23.875Z,100942.28
2023-05-14T18:55:51.775Z,100938.97
2023-05-14T18:58:21.655Z,100943.28
2023-05-14T19:00:49.545Z,100940.53
2023-05-14T19:03:17.453Z,100936.78
2023-05-14T19:05:45.402Z,100942.94
2023-05-14T19:08:13.338Z,100937.56
2023-05-14T19:10:41.324Z,100945.75
2023-05-14T19:13:09.156Z,100940.75
2023-05-14T19:15:38.483Z,100939.50
2023-05-14T19:18:06.441Z,100943.81
2023-05-14T19:20:34.357Z,100935.81
2023-05-14T19:23:02.244Z,100937.25
2023-05-14T19:25:30.159Z,100934.31
2023-05-14T19:27:58.086Z,100941.06
2023-05-14T19:30:26.021Z,100933.59
2023-05-14T19:32:55.273Z,100937.28
2023-05-14T19:35:23.347Z,100934.06
2023-05-14T19:37:51.387Z,100934.75
2023-05-14T19:40:19.219Z,100926.41
2023-05-14T19:42:47.600Z,100926.16
2023-05-14T19:45:15.430Z,100923.22
2023-05-14T19:47:43.723Z,100920.25
2023-05-14T19:50:13.083Z,100922.66
2023-05-14T19:52:40.886Z,100921.41
2023-05-14T19:55:09.146Z,100918.81
2023-05-14T19:57:38.793Z,100915.47
2023-05-14T20:00:09.297Z,100917.53
2023-05-14T20:02:41.929Z,100907.16
2023-05-14T20:05:10.599Z,100904.88
2023-05-14T20:07:40.619Z,100906.91
2023-05-14T20:10:09.511Z,100911.63
2023-05-14T20:12:37.495Z,100906.34
2023-05-14T20:15:06.105Z,100913.78
2023-05-14T20:17:33.978Z,100914.34
2023-05-14T20:20:02.248Z,100904.81
2023-05-14T20:22:30.408Z,100904.13
2023-05-14T20:24:59.651Z,100907.56
2023-05-14T20:27:27.514Z,100905.44
2023-05-14T20:29:55.387Z,100907.47
2023-05-14T20:32:24.930Z,100899.97
2023-05-14T20:34:53.192Z,100895.25
2023-05-14T20:37:23.922Z,100893.13
2023-05-14T20:39:53.015Z,100897.38
2023-05-14T20:42:22.348Z,100898.41
2023-05-14T20:44:50.376Z,100890.72
2023-05-14T20:47:21.288Z,100879.53
2023-05-14T20:49:49.263Z,100877.84
2023-05-14T20:52:17.230Z,100870.19
2023-05-14T20:54:45.188Z,100878.41
2023-05-14T20:57:15.178Z,100874.25
2023-05-14T20:59:44.357Z,100876.09
2023-05-14T21:02:12.441Z,100871.50
2023-05-14T21:04:40.537Z,100872.50
2023-05-14T21:07:08.478Z,100869.84
2023-05-14T21:09:36.379Z,100871.84
2023-05-14T21:12:04.238Z,100862.69
2023-05-14T21:14:32.083Z,100863.91
2023-05-14T21:17:01.313Z,100862.22
2023-05-14T21:19:29.186Z,100856.59
2023-05-14T21:21:57.089Z,100857.97
2023-05-14T21:24:24.994Z,100848.44
2023-05-14T21:26:53.684Z,100850.28
2023-05-14T21:29:21.630Z,100851.31
2023-05-14T21:31:50.128Z,100846.31
2023-05-14T21:34:19.300Z,100843.81
2023-05-14T21:36:47.211Z,100844.56
2023-05-14T21:39:15.064Z,100854.44
2023-05-14T21:41:43.060Z,100843.88
2023-05-14T21:44:10.939Z,100846.09
2023-05-14T21:46:38.929Z,100841.13
2023-05-14T21:49:06.999Z,100840.00
2023-05-14T21:51:36.460Z,100839.16
2023-05-14T21:54:04.628Z,100838.53
2023-05-14T21:56:32.544Z,100838.53
2023-05-14T21:59:00.516Z,100839.69
2023-05-14T22:01:28.356Z,100833.34
2023-05-14T22:03:57.700Z,100831.16
2023-05-14T22:06:27.041Z,100825.53
2023-05-14T22:08:56.232Z,100830.22
2023-05-14T22:11:24.109Z,100830.59
2023-05-14T22:13:51.945Z,100819.56
2023-05-14T22:16:19.994Z,100826.50
2023-05-14T22:18:48.049Z,100821.03
2023-05-14T22:21:15.950Z,100826.41
2023-05-14T22:23:44.261Z,100823.06
2023-05-14T22:26:13.871Z,100817.59
2023-05-14T22:28:42.931Z,100818.97
2023-05-14T22:31:10.875Z,100810.28
2023-05-14T22:33:38.763Z,100818.03
2023-05-14T22:36:07.502Z,100813.19
2023-05-14T22:38:35.594Z,100811.22
2023-05-14T22:41:03.639Z,100809.38
2023-05-14T22:43:32.903Z,100808.56
2023-05-14T22:46:00.773Z,100805.59
2023-05-14T22:48:29.440Z,100802.06
2023-05-14T22:50:57.481Z,100804.75
2023-05-14T22:53:25.475Z,100803.41
2023-05-14T22:55:53.531Z,100796.59
2023-05-14T22:58:21.352Z,100798.25
2023-05-14T23:00:50.584Z,100802.31
2023-05-14T23:03:18.455Z,100790.94
2023-05-14T23:05:46.325Z,100789.75
2023-05-14T23:08:14.129Z,100782.06
2023-05-14T23:10:42.016Z,100780.59
2023-05-14T23:13:09.839Z,100771.25
2023-05-14T23:15:38.670Z,100772.09
2023-05-14T23:18:08.792Z,100775.91
2023-05-14T23:20:36.739Z,100769.56
2023-05-14T23:23:04.658Z,100768.59
2023-05-14T23:25:33.068Z,100768.59
2023-05-14T23:28:00.884Z,100764.72
2023-05-14T23:30:28.796Z,100764.91
2023-05-14T23:32:56.710Z,100762.72
2023-05-14T23:35:26.305Z,100757.56
2023-05-14T23:37:55.196Z,100751.28
2023-05-14T23:40:23.026Z,100746.47
2023-05-14T23:42:51.300Z,100747.63
2023-05-14T23:45:19.338Z,100741.94
2023-05-14T23:47:47.357Z,100734.41
2023-05-14T23:50:15.171Z,100735.63
2023-05-14T23:52:44.372Z,100730.31
2023-05-14T23:55:12.168Z,100731.63
2023-05-14T23:57:41.080Z,100725.47
